Seamaster — ZMV7638 — position and weather

sailwx.info

Track history (hours):
 
Tides and Currents Weather Stations Pressure Air Temp Water Temp Dewpoint Dewpoint Depression Visibility Wind Speed Wind Dir Waves Ship Positions

Seamaster

Last reported at 2015-Mar-03 04:24 UTC. Time now 2015-Mar-03 07:17 UTC.
Position S 36°52' E 174°54'.

Length 44 m.

Type: Passenger vessel. MMSI: 512001027.

Date/timePositionNaut miles runAvg speedWind from/ knotsBaromVisibWave heightAir tempDewpointWater temp
2015-Mar-03 04:24S 36°52' E 174°54'1 0.4
2015-Mar-03 02:13S 36°51' E 174°54'1 1.0
2015-Mar-03 01:26S 36°52' E 174°54'1 0.4
2015-Mar-02 23:16S 36°51' E 174°53'1 1.2
2015-Mar-02 22:27S 36°52' E 174°54'1 0.4
2015-Mar-02 20:13S 36°51' E 174°54'1 1.9
2015-Mar-02 19:28S 36°53' E 174°54'2 0.8
2015-Mar-02 17:24S 36°51' E 174°53'2 1.9
2015-Mar-02 16:29S 36°53' E 174°54'0 0.0
2015-Mar-02 15:32S 36°53' E 174°54'1 0.1
2015-Mar-02 04:28S 36°52' E 174°54'1 0.3
2015-Mar-02 02:14S 36°51' E 174°54'1 0.9
2015-Mar-02 01:27S 36°52' E 174°54'1 0.3
2015-Mar-01 23:12S 36°51' E 174°54'1 0.6
2015-Mar-01 22:24S 36°52' E 174°54'0 0.2
2015-Mar-01 20:13S 36°51' E 174°54'1 0.8
2015-Mar-01 19:24S 36°52' E 174°54'1 0.3
2015-Mar-01 17:13S 36°51' E 174°54'1 0.1
2015-Mar-01 04:33S 36°53' E 174°54'2 0.9
2015-Mar-01 02:17S 36°51' E 174°54'1 1.5
2015-Mar-01 01:28S 36°52' E 174°54'1 0.4
2015-Feb-28 23:15S 36°51' E 174°54'1 1.1
2015-Feb-28 22:28S 36°52' E 174°54'2 1.1
2015-Feb-28 20:26S 36°50' E 174°56'2 2.3
2015-Feb-28 19:26S 36°52' E 174°54'1 0.4
2015-Feb-28 17:13S 36°51' E 174°54'1 0.1
2015-Feb-28 04:27S 36°52' E 174°54'1 0.4
2015-Feb-28 02:12S 36°51' E 174°54'1 1.0
2015-Feb-28 01:26S 36°52' E 174°54'1 0.5
2015-Feb-27 23:16S 36°51' E 174°54'1 1.2
2015-Feb-27 22:29S 36°52' E 174°54'2 0.1
2015-Feb-27 04:06S 36°50' E 174°55'2 0.9
2015-Feb-27 02:14S 36°51' E 174°54'0 0.0
2015-Feb-26 20:20S 36°51' E 174°54'1 0.6
2015-Feb-26 19:30S 36°52' E 174°54'2 0.1
2015-Feb-25 22:03S 36°50' E 174°56'2 0.1
2015-Feb-25 04:27S 36°52' E 174°54'1 0.4
2015-Feb-25 02:13S 36°51' E 174°54'2 0.6
2015-Feb-24 23:04S 36°53' E 174°54'0 0.3
2015-Feb-24 22:31S 36°53' E 174°54'1 0.6
2015-Feb-24 20:13S 36°51' E 174°54'1 1.2
2015-Feb-24 19:28S 36°52' E 174°54'1 0.3
2015-Feb-24 17:16S 36°51' E 174°54'1 0.1
2015-Feb-24 04:33S 36°52' E 174°54'1 0.3
2015-Feb-24 02:10S 36°51' E 174°54'1 1.0
2015-Feb-24 01:21S 36°52' E 174°54'3 1.5
2015-Feb-23 23:30S 36°50' E 174°57'3 2.4
2015-Feb-23 22:21S 36°52' E 174°54'1 0.3
2015-Feb-23 20:15S 36°51' E 174°54'1 1.0
2015-Feb-23 19:28S 36°51' E 174°54'1 0.3
2015-Feb-23 17:33S 36°51' E 174°53'2 1.6
2015-Feb-23 16:08S 36°53' E 174°54'5 0.6
2015-Feb-23 07:29S 36°47' E 174°54'3 1.7
2015-Feb-23 05:29S 36°51' E 174°53'1 1.5
2015-Feb-23 04:33S 36°52' E 174°54'0 0.1
2015-Feb-23 02:11S 36°51' E 174°54'0 0.5
2015-Feb-23 01:33S 36°52' E 174°54'0 0.1
2015-Feb-22 23:20S 36°51' E 174°54'1 0.6
2015-Feb-22 22:28S 36°52' E 174°54'1 0.3
2015-Feb-22 20:17S 36°51' E 174°54'0 0.3
2015-Feb-22 19:19S 36°52' E 174°54'1 0.8
2015-Feb-22 17:26S 36°51' E 174°53'1 0.1
2015-Feb-22 04:33S 36°51' E 174°54'0 0.0
2015-Feb-22 02:12S 36°51' E 174°54'1 0.7
2015-Feb-22 01:27S 36°52' E 174°54'3 1.5
2015-Feb-21 23:31S 36°50' E 174°57'3 2.7
2015-Feb-21 22:25S 36°52' E 174°54'1 0.6
2015-Feb-21 20:17S 36°51' E 174°54'2 2.2
2015-Feb-21 19:29S 36°53' E 174°54'2 0.9
2015-Feb-21 17:23S 36°51' E 174°54'1 0.0
2015-Feb-21 04:33S 36°51' E 174°53'  
Track history (hours):
 
Tides and Currents Weather Stations Pressure Air Temp Water Temp Dewpoint Dewpoint Depression Visibility Wind Speed Wind Dir Waves Ship Positions

Seamaster

Last reported at 2015-Mar-03 04:24 UTC. Time now 2015-Mar-03 07:17 UTC.
Position S 36°52' E 174°54'.

Length 44 m.

Type: Passenger vessel. MMSI: 512001027.

Date/timePositionNaut miles runAvg speedWind from/ knotsBaromVisibWave heightAir tempDewpointWater temp
2015-Mar-03 04:24S 36°52' E 174°54'1 0.4
2015-Mar-03 02:13S 36°51' E 174°54'1 1.0
2015-Mar-03 01:26S 36°52' E 174°54'1 0.4
2015-Mar-02 23:16S 36°51' E 174°53'1 1.2
2015-Mar-02 22:27S 36°52' E 174°54'1 0.4
2015-Mar-02 20:13S 36°51' E 174°54'1 1.9
2015-Mar-02 19:28S 36°53' E 174°54'2 0.8
2015-Mar-02 17:24S 36°51' E 174°53'2 1.9
2015-Mar-02 16:29S 36°53' E 174°54'0 0.0
2015-Mar-02 15:32S 36°53' E 174°54'1 0.1
2015-Mar-02 04:28S 36°52' E 174°54'1 0.3
2015-Mar-02 02:14S 36°51' E 174°54'1 0.9
2015-Mar-02 01:27S 36°52' E 174°54'1 0.3
2015-Mar-01 23:12S 36°51' E 174°54'1 0.6
2015-Mar-01 22:24S 36°52' E 174°54'0 0.2
2015-Mar-01 20:13S 36°51' E 174°54'1 0.8
2015-Mar-01 19:24S 36°52' E 174°54'1 0.3
2015-Mar-01 17:13S 36°51' E 174°54'1 0.1
2015-Mar-01 04:33S 36°53' E 174°54'2 0.9
2015-Mar-01 02:17S 36°51' E 174°54'1 1.5
2015-Mar-01 01:28S 36°52' E 174°54'1 0.4
2015-Feb-28 23:15S 36°51' E 174°54'1 1.1
2015-Feb-28 22:28S 36°52' E 174°54'2 1.1
2015-Feb-28 20:26S 36°50' E 174°56'2 2.3
2015-Feb-28 19:26S 36°52' E 174°54'1 0.4
2015-Feb-28 17:13S 36°51' E 174°54'1 0.1
2015-Feb-28 04:27S 36°52' E 174°54'1 0.4
2015-Feb-28 02:12S 36°51' E 174°54'1 1.0
2015-Feb-28 01:26S 36°52' E 174°54'1 0.5
2015-Feb-27 23:16S 36°51' E 174°54'1 1.2
2015-Feb-27 22:29S 36°52' E 174°54'2 0.1
2015-Feb-27 04:06S 36°50' E 174°55'2 0.9
2015-Feb-27 02:14S 36°51' E 174°54'0 0.0
2015-Feb-26 20:20S 36°51' E 174°54'1 0.6
2015-Feb-26 19:30S 36°52' E 174°54'2 0.1
2015-Feb-25 22:03S 36°50' E 174°56'2 0.1
2015-Feb-25 04:27S 36°52' E 174°54'1 0.4
2015-Feb-25 02:13S 36°51' E 174°54'2 0.6
2015-Feb-24 23:04S 36°53' E 174°54'0 0.3
2015-Feb-24 22:31S 36°53' E 174°54'1 0.6
2015-Feb-24 20:13S 36°51' E 174°54'1 1.2
2015-Feb-24 19:28S 36°52' E 174°54'1 0.3
2015-Feb-24 17:16S 36°51' E 174°54'1 0.1
2015-Feb-24 04:33S 36°52' E 174°54'1 0.3
2015-Feb-24 02:10S 36°51' E 174°54'1 1.0
2015-Feb-24 01:21S 36°52' E 174°54'3 1.5
2015-Feb-23 23:30S 36°50' E 174°57'3 2.4
2015-Feb-23 22:21S 36°52' E 174°54'1 0.3
2015-Feb-23 20:15S 36°51' E 174°54'1 1.0
2015-Feb-23 19:28S 36°51' E 174°54'1 0.3
2015-Feb-23 17:33S 36°51' E 174°53'2 1.6
2015-Feb-23 16:08S 36°53' E 174°54'5 0.6
2015-Feb-23 07:29S 36°47' E 174°54'3 1.7
2015-Feb-23 05:29S 36°51' E 174°53'1 1.5
2015-Feb-23 04:33S 36°52' E 174°54'0 0.1
2015-Feb-23 02:11S 36°51' E 174°54'0 0.5
2015-Feb-23 01:33S 36°52' E 174°54'0 0.1
2015-Feb-22 23:20S 36°51' E 174°54'1 0.6
2015-Feb-22 22:28S 36°52' E 174°54'1 0.3
2015-Feb-22 20:17S 36°51' E 174°54'0 0.3
2015-Feb-22 19:19S 36°52' E 174°54'1 0.8
2015-Feb-22 17:26S 36°51' E 174°53'1 0.1
2015-Feb-22 04:33S 36°51' E 174°54'0 0.0
2015-Feb-22 02:12S 36°51' E 174°54'1 0.7
2015-Feb-22 01:27S 36°52' E 174°54'3 1.5
2015-Feb-21 23:31S 36°50' E 174°57'3 2.7
2015-Feb-21 22:25S 36°52' E 174°54'1 0.6
2015-Feb-21 20:17S 36°51' E 174°54'2 2.2
2015-Feb-21 19:29S 36°53' E 174°54'2 0.9
2015-Feb-21 17:23S 36°51' E 174°54'1 0.0
2015-Feb-21 04:33S 36°51' E 174°53'  

Dump ship's entire track history